createdAt,value
2022-10-11T00:00:32.036Z,90.45
2022-10-11T00:03:34.155Z,90.50
2022-10-11T00:06:38.118Z,90.71
2022-10-11T00:09:40.546Z,90.97
2022-10-11T00:12:42.707Z,90.76
2022-10-11T00:15:44.745Z,90.86
2022-10-11T00:18:47.077Z,90.84
2022-10-11T00:21:49.106Z,90.92
2022-10-11T00:24:52.819Z,90.98
2022-10-11T00:27:55.002Z,91.22
2022-10-11T00:30:57.163Z,91.02
2022-10-11T00:33:59.383Z,90.92
2022-10-11T00:37:01.592Z,90.94
2022-10-11T00:40:13.108Z,91.15
2022-10-11T00:43:18.344Z,91.13
2022-10-11T00:46:29.560Z,91.11
2022-10-11T00:49:38.327Z,91.18
2022-10-11T00:52:50.187Z,91.10
2022-10-11T00:55:57.526Z,91.01
2022-10-11T00:59:02.012Z,91.12
2022-10-11T01:02:06.836Z,90.90
2022-10-11T01:05:28.681Z,90.93
2022-10-11T01:08:34.931Z,91.05
2022-10-11T01:11:41.262Z,91.30
2022-10-11T01:14:58.688Z,91.52
2022-10-11T01:18:03.361Z,91.51
2022-10-11T01:21:17.676Z,91.45
2022-10-11T01:24:41.697Z,91.41
2022-10-11T01:28:09.135Z,91.47
2022-10-11T01:31:25.566Z,91.44
2022-10-11T01:34:37.278Z,91.48
2022-10-11T01:37:43.627Z,91.54
2022-10-11T01:41:09.923Z,91.61
2022-10-11T01:44:13.737Z,91.68
2022-10-11T01:47:23.365Z,91.77
2022-10-11T01:50:37.228Z,91.80
2022-10-11T01:55:07.669Z,92.06
2022-10-11T01:58:14.501Z,92.28
2022-10-11T02:01:33.703Z,92.45
2022-10-11T02:04:44.874Z,92.60
2022-10-11T02:08:03.009Z,92.57
2022-10-11T02:11:13.624Z,92.54
2022-10-11T02:14:23.231Z,92.54
2022-10-11T02:17:34.561Z,92.59
2022-10-11T02:20:40.483Z,92.61
2022-10-11T02:23:56.446Z,92.57
2022-10-11T02:27:03.079Z,92.74
2022-10-11T02:30:08.175Z,92.87
2022-10-11T02:33:14.576Z,92.91
2022-10-11T02:36:25.039Z,92.92
2022-10-11T02:39:34.351Z,92.72
2022-10-11T02:42:44.539Z,92.43
2022-10-11T02:45:54.913Z,91.91
2022-10-11T02:49:00.691Z,91.53
2022-10-11T02:52:06.054Z,91.50
2022-10-11T02:55:09.044Z,91.94
2022-10-11T02:58:11.004Z,92.24
2022-10-11T03:01:13.306Z,92.58
2022-10-11T03:04:15.464Z,92.69
2022-10-11T03:07:17.478Z,92.86
2022-10-11T03:10:19.515Z,92.97
2022-10-11T03:13:22.006Z,93.18
2022-10-11T03:16:23.989Z,93.03
2022-10-11T03:19:26.718Z,92.82
2022-10-11T03:22:28.668Z,92.80
2022-10-11T03:25:30.724Z,92.64
2022-10-11T03:28:32.753Z,92.83
2022-10-11T03:31:35.933Z,92.95
2022-10-11T03:34:37.914Z,92.91
2022-10-11T03:37:39.924Z,92.86
2022-10-11T03:40:42.877Z,92.87
2022-10-11T03:43:44.882Z,92.77
2022-10-11T03:46:46.858Z,92.51
2022-10-11T03:49:48.935Z,92.44
2022-10-11T03:52:51.166Z,92.55
2022-10-11T03:55:54.783Z,92.67
2022-10-11T03:58:56.823Z,92.61
2022-10-11T04:01:58.873Z,92.60
2022-10-11T04:05:01.900Z,92.70
2022-10-11T04:08:06.324Z,92.73
2022-10-11T04:11:11.800Z,92.77
2022-10-11T04:14:13.839Z,93.02
2022-10-11T04:17:15.882Z,93.24
2022-10-11T04:20:18.293Z,93.17
2022-10-11T04:23:20.272Z,92.73
2022-10-11T04:26:22.239Z,92.38
2022-10-11T04:29:27.736Z,91.83
2022-10-11T04:32:33.617Z,91.63
2022-10-11T04:35:35.725Z,92.02
2022-10-11T04:38:37.791Z,91.93
2022-10-11T04:41:39.875Z,92.13
2022-10-11T04:44:41.812Z,92.22
2022-10-11T04:47:43.769Z,92.26
2022-10-11T04:50:46.097Z,92.27
2022-10-11T04:53:48.869Z,92.25
2022-10-11T04:56:50.945Z,92.36
2022-10-11T04:59:52.897Z,92.51
2022-10-11T05:02:55.358Z,92.56
2022-10-11T05:05:59.989Z,92.53
2022-10-11T05:09:04.128Z,92.59
2022-10-11T05:12:06.393Z,92.59
2022-10-11T05:15:08.968Z,92.04
2022-10-11T05:18:11.027Z,91.67
2022-10-11T05:21:19.401Z,91.57
2022-10-11T05:24:21.487Z,91.46
2022-10-11T05:27:23.429Z,91.30
2022-10-11T05:30:25.392Z,91.25
2022-10-11T05:33:27.466Z,91.23
2022-10-11T05:36:29.479Z,91.39
2022-10-11T05:39:31.493Z,91.44
2022-10-11T05:42:33.532Z,91.36
2022-10-11T05:45:38.391Z,91.43
2022-10-11T05:48:40.637Z,91.32
2022-10-11T05:51:42.625Z,91.07
2022-10-11T05:54:44.621Z,90.55
2022-10-11T05:57:46.791Z,90.04
2022-10-11T06:00:48.849Z,89.22
2022-10-11T06:03:51.386Z,88.80
2022-10-11T06:06:53.451Z,88.14
2022-10-11T06:09:55.426Z,87.71
2022-10-11T06:12:57.717Z,87.62
2022-10-11T06:15:59.685Z,88.02
2022-10-11T06:19:01.683Z,87.76
2022-10-11T06:22:03.718Z,87.70
2022-10-11T06:25:06.474Z,87.41
2022-10-11T06:28:08.604Z,87.25
2022-10-11T06:31:11.204Z,86.97
2022-10-11T06:34:13.140Z,86.30
2022-10-11T06:37:15.383Z,86.37
2022-10-11T06:40:17.782Z,85.19
2022-10-11T06:43:20.230Z,82.85
2022-10-11T06:46:24.335Z,82.75
2022-10-11T06:49:26.397Z,82.50
2022-10-11T06:52:28.474Z,82.30
2022-10-11T06:55:32.486Z,82.16
2022-10-11T06:58:34.695Z,82.83
2022-10-11T07:01:36.719Z,82.04
2022-10-11T07:04:39.449Z,81.47
2022-10-11T07:07:41.490Z,81.85
2022-10-11T07:10:43.523Z,81.57
2022-10-11T07:13:50.990Z,81.43
2022-10-11T07:16:52.952Z,81.66
2022-10-11T07:19:54.907Z,81.94
2022-10-11T07:22:56.965Z,82.15
2022-10-11T07:25:59.436Z,81.90
2022-10-11T07:29:01.699Z,82.12
2022-10-11T07:32:03.901Z,82.11
2022-10-11T07:35:06.153Z,79.65
2022-10-11T07:38:08.584Z,77.35
2022-10-11T07:41:11.263Z,74.80
2022-10-11T07:44:14.097Z,74.65
2022-10-11T07:47:16.150Z,72.40
2022-10-11T07:50:18.384Z,71.27
2022-10-11T07:53:20.355Z,73.79
2022-10-11T07:56:28.299Z,74.83
2022-10-11T07:59:30.291Z,74.85
2022-10-11T08:02:32.431Z,74.06
2022-10-11T08:05:35.082Z,72.81
2022-10-11T08:08:37.773Z,71.26
2022-10-11T08:11:40.185Z,70.86
2022-10-11T08:14:42.300Z,72.57
2022-10-11T08:17:44.212Z,71.71
2022-10-11T08:20:46.685Z,72.14
2022-10-11T08:23:48.826Z,72.78
2022-10-11T08:26:52.025Z,74.03
2022-10-11T08:29:53.997Z,73.02
2022-10-11T08:32:57.055Z,72.78
2022-10-11T08:35:59.150Z,72.38
2022-10-11T08:39:01.325Z,73.35
2022-10-11T08:42:16.065Z,72.84
2022-10-11T08:45:30.227Z,71.45
2022-10-11T08:48:38.565Z,72.22
2022-10-11T08:51:45.696Z,70.94
2022-10-11T08:54:58.333Z,71.14
2022-10-11T08:58:00.841Z,71.81
2022-10-11T09:01:03.338Z,71.57
2022-10-11T09:04:06.294Z,71.78
2022-10-11T09:07:28.070Z,71.46
2022-10-11T09:10:54.955Z,72.15
2022-10-11T09:14:31.515Z,69.71
2022-10-11T09:18:02.778Z,68.58
2022-10-11T09:21:12.835Z,67.27
2022-10-11T09:24:31.725Z,67.16
2022-10-11T09:28:01.180Z,66.39
2022-10-11T09:31:00.452Z,64.84
2022-10-11T09:34:15.175Z,62.71
2022-10-11T09:37:30.288Z,60.68
2022-10-11T09:40:49.259Z,59.18
2022-10-11T09:43:52.577Z,55.76
2022-10-11T09:46:56.229Z,55.19
2022-10-11T09:50:04.386Z,54.56
2022-10-11T09:53:07.849Z,54.58
2022-10-11T09:56:10.194Z,51.63
2022-10-11T09:59:27.295Z,51.97
2022-10-11T10:02:31.267Z,48.90
2022-10-11T10:05:37.043Z,52.27
2022-10-11T10:08:39.066Z,49.76
2022-10-11T10:11:41.172Z,50.98
2022-10-11T10:14:43.221Z,52.38
2022-10-11T10:17:51.183Z,51.63
2022-10-11T10:20:56.391Z,51.94
2022-10-11T10:24:03.281Z,52.26
2022-10-11T10:27:14.682Z,51.29
2022-10-11T10:30:19.645Z,51.96
2022-10-11T10:33:24.683Z,48.92
2022-10-11T10:36:35.667Z,47.23
2022-10-11T10:39:45.085Z,48.16
2022-10-11T10:42:47.144Z,44.21
2022-10-11T10:46:34.352Z,45.16
2022-10-11T10:50:14.156Z,43.27
2022-10-11T10:53:40.742Z,41.61
2022-10-11T10:57:20.982Z,47.89
2022-10-11T11:00:24.414Z,45.66
2022-10-11T11:04:01.892Z,45.52
2022-10-11T11:07:19.133Z,44.49
2022-10-11T11:10:45.194Z,46.51
2022-10-11T11:14:02.463Z,43.84
2022-10-11T11:17:25.226Z,41.19
2022-10-11T11:20:39.384Z,42.66
2022-10-11T11:24:01.452Z,45.84
2022-10-11T11:27:31.088Z,46.01
2022-10-11T11:30:57.870Z,48.39
2022-10-11T11:34:44.584Z,49.47
2022-10-11T11:37:48.436Z,46.31
2022-10-11T11:40:57.410Z,44.88
2022-10-11T11:44:16.153Z,45.33
2022-10-11T11:47:24.285Z,43.21
2022-10-11T11:50:28.634Z,43.55
2022-10-11T11:53:32.337Z,45.58
2022-10-11T11:56:51.012Z,45.42
2022-10-11T12:00:02.210Z,47.29
2022-10-11T12:03:13.566Z,45.79
2022-10-11T12:06:20.450Z,45.25
2022-10-11T12:09:23.369Z,44.14
2022-10-11T12:12:34.130Z,40.29
2022-10-11T12:15:37.107Z,38.00
2022-10-11T12:19:01.872Z,37.79
2022-10-11T12:22:36.890Z,38.61
2022-10-11T12:25:41.112Z,39.79
2022-10-11T12:28:43.569Z,39.22
2022-10-11T12:31:50.906Z,42.41
2022-10-11T12:35:31.412Z,45.91
2022-10-11T12:38:37.933Z,43.36
2022-10-11T12:41:49.015Z,45.14
2022-10-11T12:45:13.310Z,45.15
2022-10-11T12:48:38.414Z,45.43
2022-10-11T12:52:04.831Z,46.70
2022-10-11T12:55:09.804Z,47.47
2022-10-11T12:58:17.876Z,48.78
2022-10-11T13:01:27.297Z,49.45
2022-10-11T13:04:32.903Z,47.31
2022-10-11T13:07:35.864Z,46.01
2022-10-11T13:10:44.949Z,43.32
2022-10-11T13:13:56.199Z,40.75
2022-10-11T13:17:04.128Z,42.57
2022-10-11T13:20:09.292Z,42.65
2022-10-11T13:23:23.359Z,42.02
2022-10-11T13:26:28.094Z,42.44
2022-10-11T13:29:33.978Z,42.55
2022-10-11T13:32:36.738Z,42.11
2022-10-11T13:35:39.092Z,40.35
2022-10-11T13:38:41.433Z,41.52
2022-10-11T13:41:43.828Z,39.48
2022-10-11T13:44:47.209Z,38.49
2022-10-11T13:47:51.353Z,38.11
2022-10-11T13:51:18.055Z,37.92
2022-10-11T13:54:20.046Z,36.59
2022-10-11T13:57:32.931Z,37.82
2022-10-11T14:00:39.673Z,36.47
2022-10-11T14:03:46.310Z,35.50
2022-10-11T14:06:56.715Z,34.44
2022-10-11T14:09:58.877Z,36.13
2022-10-11T14:13:35.126Z,36.37
2022-10-11T14:16:37.217Z,37.51
2022-10-11T14:19:39.761Z,38.58
2022-10-11T14:22:41.813Z,38.74
2022-10-11T14:25:43.852Z,40.05
2022-10-11T14:28:49.506Z,39.04
2022-10-11T14:32:01.429Z,40.86
2022-10-11T14:35:04.115Z,40.35
2022-10-11T14:38:06.174Z,42.14
2022-10-11T14:41:08.210Z,43.52
2022-10-11T14:44:10.736Z,41.30
2022-10-11T14:47:17.006Z,40.91
2022-10-11T14:50:35.036Z,42.75
2022-10-11T14:53:40.867Z,43.00
2022-10-11T14:56:43.068Z,42.68
2022-10-11T14:59:45.071Z,43.35
2022-10-11T15:02:47.334Z,44.60
2022-10-11T15:05:49.328Z,44.92
2022-10-11T15:08:51.523Z,45.88
2022-10-11T15:11:54.882Z,45.37
2022-10-11T15:14:56.807Z,45.48
2022-10-11T15:18:00.479Z,46.11
2022-10-11T15:21:02.580Z,46.03
2022-10-11T15:24:04.753Z,46.67
2022-10-11T15:27:06.744Z,47.33
2022-10-11T15:30:17.327Z,47.97
2022-10-11T15:33:19.581Z,49.15
2022-10-11T15:36:22.910Z,49.66
2022-10-11T15:39:33.917Z,50.34
2022-10-11T15:42:35.954Z,50.71
2022-10-11T15:45:38.660Z,52.00
2022-10-11T15:48:40.768Z,52.83
2022-10-11T15:51:44.183Z,53.35
2022-10-11T15:54:46.177Z,54.86
2022-10-11T15:57:48.189Z,55.12
2022-10-11T16:00:54.209Z,55.31
2022-10-11T16:03:56.315Z,56.41
2022-10-11T16:06:58.293Z,56.96
2022-10-11T16:10:00.354Z,57.76
2022-10-11T16:13:02.642Z,57.22
2022-10-11T16:16:10.317Z,58.05
2022-10-11T16:19:12.968Z,58.75
2022-10-11T16:22:15.077Z,58.70
2022-10-11T16:25:17.783Z,59.45
2022-10-11T16:28:19.819Z,60.55
2022-10-11T16:31:21.910Z,61.28
2022-10-11T16:34:24.105Z,61.92
2022-10-11T16:37:26.090Z,63.01
2022-10-11T16:40:30.164Z,63.96
2022-10-11T16:43:32.124Z,63.47
2022-10-11T16:46:34.641Z,64.08
2022-10-11T16:49:37.554Z,63.72
2022-10-11T16:52:39.549Z,64.11
2022-10-11T16:55:41.869Z,64.55
2022-10-11T16:58:43.935Z,64.34
2022-10-11T17:01:46.102Z,65.31
2022-10-11T17:04:51.550Z,65.17
2022-10-11T17:07:53.656Z,65.43
2022-10-11T17:10:57.703Z,65.63
2022-10-11T17:14:01.108Z,65.78
2022-10-11T17:17:04.902Z,66.08
2022-10-11T17:20:07.253Z,66.20
2022-10-11T17:23:09.787Z,66.66
2022-10-11T17:26:17.167Z,66.80
2022-10-11T17:29:21.473Z,66.90
2022-10-11T17:32:23.800Z,67.76
2022-10-11T17:35:25.718Z,68.26
2022-10-11T17:38:28.303Z,68.80
2022-10-11T17:41:32.244Z,69.56
2022-10-11T17:44:36.297Z,70.12
2022-10-11T17:47:38.264Z,70.45
2022-10-11T17:50:45.819Z,71.08
2022-10-11T17:53:51.081Z,71.88
2022-10-11T17:56:54.630Z,71.87
2022-10-11T17:59:57.822Z,72.01
2022-10-11T18:02:59.895Z,72.42
2022-10-11T18:06:07.133Z,72.65
2022-10-11T18:09:09.503Z,72.97
2022-10-11T18:12:11.446Z,73.17
2022-10-11T18:15:14.287Z,73.40
2022-10-11T18:18:18.273Z,74.08
2022-10-11T18:21:20.847Z,74.09
2022-10-11T18:24:23.194Z,74.34
2022-10-11T18:27:25.172Z,74.34
2022-10-11T18:30:27.322Z,74.72
2022-10-11T18:33:29.262Z,74.65
2022-10-11T18:36:33.385Z,74.83
2022-10-11T18:39:36.064Z,74.62
2022-10-11T18:42:38.441Z,74.90
2022-10-11T18:45:40.778Z,75.28
2022-10-11T18:48:44.929Z,75.70
2022-10-11T18:51:48.393Z,75.78
2022-10-11T18:54:51.667Z,76.12
2022-10-11T18:57:54.172Z,76.26
2022-10-11T19:01:03.540Z,76.43
2022-10-11T19:04:07.922Z,76.61
2022-10-11T19:07:10.177Z,76.96
2022-10-11T19:10:12.495Z,76.86
2022-10-11T19:13:14.940Z,77.16
2022-10-11T19:16:17.721Z,77.51
2022-10-11T19:19:22.337Z,77.92
2022-10-11T19:22:25.430Z,78.15
2022-10-11T19:25:28.343Z,78.11
2022-10-11T19:28:31.982Z,78.39
2022-10-11T19:31:36.486Z,78.63
2022-10-11T19:34:38.790Z,78.71
2022-10-11T19:37:41.120Z,78.74
2022-10-11T19:40:44.518Z,79.44
2022-10-11T19:43:47.058Z,79.65
2022-10-11T19:46:52.075Z,79.78
2022-10-11T19:49:55.211Z,79.48
2022-10-11T19:52:57.639Z,79.06
2022-10-11T19:56:05.950Z,78.86
2022-10-11T19:59:09.038Z,78.31
2022-10-11T20:02:12.996Z,78.13
2022-10-11T20:05:15.547Z,77.90
2022-10-11T20:08:17.645Z,77.83
2022-10-11T20:11:20.837Z,77.47
2022-10-11T20:14:22.942Z,77.43
2022-10-11T20:17:45.119Z,77.11
2022-10-11T20:20:59.385Z,76.91
2022-10-11T20:24:04.232Z,76.79
2022-10-11T20:27:06.669Z,76.73
2022-10-11T20:30:09.163Z,76.87
2022-10-11T20:33:11.219Z,76.75
2022-10-11T20:36:16.091Z,76.64
2022-10-11T20:39:18.141Z,76.49
2022-10-11T20:42:20.154Z,76.58
2022-10-11T20:45:22.173Z,76.42
2022-10-11T20:48:24.380Z,76.46
2022-10-11T20:51:27.094Z,76.53
2022-10-11T20:54:29.941Z,76.65
2022-10-11T20:57:32.196Z,76.80
2022-10-11T21:00:34.337Z,76.98
2022-10-11T21:03:36.466Z,76.92
2022-10-11T21:06:38.417Z,77.30
2022-10-11T21:09:40.448Z,77.67
2022-10-11T21:12:42.488Z,77.87
2022-10-11T21:15:44.479Z,77.97
2022-10-11T21:18:50.997Z,78.19
2022-10-11T21:21:53.951Z,78.18
2022-10-11T21:24:56.003Z,78.33
2022-10-11T21:27:57.977Z,78.44
2022-10-11T21:31:08.287Z,78.53
2022-10-11T21:34:10.351Z,78.93
2022-10-11T21:37:12.373Z,79.10
2022-10-11T21:40:14.443Z,79.29
2022-10-11T21:43:16.382Z,79.41
2022-10-11T21:46:20.068Z,79.20
2022-10-11T21:49:22.134Z,79.40
2022-10-11T21:52:24.188Z,79.47
2022-10-11T21:55:27.270Z,79.41
2022-10-11T21:58:29.349Z,79.41
2022-10-11T22:01:31.354Z,79.50
2022-10-11T22:04:33.431Z,79.78
2022-10-11T22:07:35.401Z,80.06
2022-10-11T22:10:37.339Z,80.18
2022-10-11T22:13:39.440Z,80.40
2022-10-11T22:16:41.448Z,80.57
2022-10-11T22:19:43.525Z,80.56
2022-10-11T22:22:45.547Z,80.69
2022-10-11T22:25:47.470Z,80.91
2022-10-11T22:28:49.897Z,80.95
2022-10-11T22:31:51.883Z,81.06
2022-10-11T22:34:53.974Z,81.29
2022-10-11T22:37:55.855Z,81.20
2022-10-11T22:40:58.948Z,81.55
2022-10-11T22:44:01.096Z,81.60
2022-10-11T22:47:03.137Z,81.82
2022-10-11T22:50:05.519Z,82.00
2022-10-11T22:53:08.658Z,82.41
2022-10-11T22:56:11.358Z,82.83
2022-10-11T22:59:13.610Z,83.24
2022-10-11T23:02:15.564Z,83.53
2022-10-11T23:05:17.783Z,83.32
2022-10-11T23:08:19.757Z,83.50
2022-10-11T23:11:21.773Z,83.66
2022-10-11T23:14:23.714Z,83.85
2022-10-11T23:17:25.783Z,84.22
2022-10-11T23:20:28.728Z,84.12
2022-10-11T23:23:31.076Z,84.41
2022-10-11T23:26:33.039Z,84.55
2022-10-11T23:29:35.133Z,84.84
2022-10-11T23:32:37.091Z,85.15
2022-10-11T23:35:39.107Z,85.39
2022-10-11T23:38:41.317Z,85.58
2022-10-11T23:41:43.979Z,86.05
2022-10-11T23:44:46.047Z,85.92
2022-10-11T23:47:48.126Z,86.11
2022-10-11T23:50:50.327Z,86.21
2022-10-11T23:53:52.274Z,86.21
2022-10-11T23:56:54.275Z,86.21
2022-10-11T23:59:56.275Z,86.43
